sensor_id;sensor_type;location;lat;lon;timestamp;P1;durP1;ratioP1;P2;durP2;ratioP2
71655;SDS011;59497;48.798;8.816;2023-07-02T00:00:45;3.53;;;2.40;;
71655;SDS011;59497;48.798;8.816;2023-07-02T00:03:10;4.07;;;3.07;;
71655;SDS011;59497;48.798;8.816;2023-07-02T00:05:35;3.77;;;2.67;;
71655;SDS011;59497;48.798;8.816;2023-07-02T00:08:02;2.85;;;2.55;;
71655;SDS011;59497;48.798;8.816;2023-07-02T00:10:27;3.93;;;2.83;;
71655;SDS011;59497;48.798;8.816;2023-07-02T00:12:52;4.10;;;2.63;;
71655;SDS011;59497;48.798;8.816;2023-07-02T00:15:17;4.73;;;2.97;;
71655;SDS011;59497;48.798;8.816;2023-07-02T00:17:42;3.13;;;2.63;;
71655;SDS011;59497;48.798;8.816;2023-07-02T00:20:08;3.80;;;2.57;;
71655;SDS011;59497;48.798;8.816;2023-07-02T00:22:39;5.18;;;2.80;;
71655;SDS011;59497;48.798;8.816;2023-07-02T00:25:06;2.93;;;2.43;;
71655;SDS011;59497;48.798;8.816;2023-07-02T00:27:32;3.92;;;3.13;;
71655;SDS011;59497;48.798;8.816;2023-07-02T00:29:57;4.30;;;2.47;;
71655;SDS011;59497;48.798;8.816;2023-07-02T00:32:22;4.23;;;2.47;;
71655;SDS011;59497;48.798;8.816;2023-07-02T00:34:47;3.60;;;2.37;;
71655;SDS011;59497;48.798;8.816;2023-07-02T00:37:13;3.30;;;2.40;;
71655;SDS011;59497;48.798;8.816;2023-07-02T00:39:38;3.30;;;2.87;;
71655;SDS011;59497;48.798;8.816;2023-07-02T00:42:03;3.93;;;2.80;;
71655;SDS011;59497;48.798;8.816;2023-07-02T00:44:29;2.90;;;2.60;;
71655;SDS011;59497;48.798;8.816;2023-07-02T00:46:54;4.37;;;2.50;;
71655;SDS011;59497;48.798;8.816;2023-07-02T00:49:19;3.15;;;2.53;;
71655;SDS011;59497;48.798;8.816;2023-07-02T00:51:45;3.33;;;2.50;;
71655;SDS011;59497;48.798;8.816;2023-07-02T00:54:10;4.50;;;2.73;;
71655;SDS011;59497;48.798;8.816;2023-07-02T00:56:35;3.57;;;2.53;;
71655;SDS011;59497;48.798;8.816;2023-07-02T00:59:00;3.97;;;2.37;;
71655;SDS011;59497;48.798;8.816;2023-07-02T01:01:26;3.17;;;2.47;;
71655;SDS011;59497;48.798;8.816;2023-07-02T01:06:28;4.65;;;2.47;;
71655;SDS011;59497;48.798;8.816;2023-07-02T01:09:00;4.33;;;2.23;;
71655;SDS011;59497;48.798;8.816;2023-07-02T01:11:33;2.75;;;2.35;;
71655;SDS011;59497;48.798;8.816;2023-07-02T01:14:04;4.50;;;2.40;;
71655;SDS011;59497;48.798;8.816;2023-07-02T01:16:30;4.05;;;2.67;;
71655;SDS011;59497;48.798;8.816;2023-07-02T01:18:57;3.83;;;1.85;;
71655;SDS011;59497;48.798;8.816;2023-07-02T01:21:23;3.13;;;2.57;;
71655;SDS011;59497;48.798;8.816;2023-07-02T01:23:49;3.85;;;2.50;;
71655;SDS011;59497;48.798;8.816;2023-07-02T01:26:14;4.90;;;2.40;;
71655;SDS011;59497;48.798;8.816;2023-07-02T01:28:41;3.57;;;2.70;;
71655;SDS011;59497;48.798;8.816;2023-07-02T01:31:06;4.03;;;2.28;;
71655;SDS011;59497;48.798;8.816;2023-07-02T01:33:31;3.83;;;2.23;;
71655;SDS011;59497;48.798;8.816;2023-07-02T01:35:56;4.00;;;2.40;;
71655;SDS011;59497;48.798;8.816;2023-07-02T01:38:22;2.33;;;2.10;;
71655;SDS011;59497;48.798;8.816;2023-07-02T01:40:47;3.53;;;2.03;;
71655;SDS011;59497;48.798;8.816;2023-07-02T01:43:12;3.77;;;2.30;;
71655;SDS011;59497;48.798;8.816;2023-07-02T01:45:37;6.07;;;2.77;;
71655;SDS011;59497;48.798;8.816;2023-07-02T01:48:03;5.50;;;2.43;;
71655;SDS011;59497;48.798;8.816;2023-07-02T01:50:28;3.38;;;2.30;;
71655;SDS011;59497;48.798;8.816;2023-07-02T01:52:53;3.17;;;2.27;;
71655;SDS011;59497;48.798;8.816;2023-07-02T01:55:18;4.70;;;2.70;;
71655;SDS011;59497;48.798;8.816;2023-07-02T01:57:43;2.90;;;2.37;;
71655;SDS011;59497;48.798;8.816;2023-07-02T02:00:09;4.30;;;1.97;;
71655;SDS011;59497;48.798;8.816;2023-07-02T02:02:34;3.17;;;2.13;;
71655;SDS011;59497;48.798;8.816;2023-07-02T02:05:00;3.87;;;2.50;;
71655;SDS011;59497;48.798;8.816;2023-07-02T02:07:25;2.93;;;2.30;;
71655;SDS011;59497;48.798;8.816;2023-07-02T02:09:51;2.85;;;2.25;;
71655;SDS011;59497;48.798;8.816;2023-07-02T02:12:16;4.27;;;2.10;;
71655;SDS011;59497;48.798;8.816;2023-07-02T02:14:41;4.43;;;2.20;;
71655;SDS011;59497;48.798;8.816;2023-07-02T02:17:06;5.17;;;1.87;;
71655;SDS011;59497;48.798;8.816;2023-07-02T02:19:31;3.33;;;2.00;;
71655;SDS011;59497;48.798;8.816;2023-07-02T02:21:57;3.57;;;2.00;;
71655;SDS011;59497;48.798;8.816;2023-07-02T02:24:22;4.03;;;2.10;;
71655;SDS011;59497;48.798;8.816;2023-07-02T02:26:47;3.07;;;1.87;;
71655;SDS011;59497;48.798;8.816;2023-07-02T02:29:12;2.83;;;2.20;;
71655;SDS011;59497;48.798;8.816;2023-07-02T02:31:37;4.73;;;2.23;;
71655;SDS011;59497;48.798;8.816;2023-07-02T02:34:03;5.43;;;2.20;;
71655;SDS011;59497;48.798;8.816;2023-07-02T02:36:28;4.23;;;2.50;;
71655;SDS011;59497;48.798;8.816;2023-07-02T02:38:53;4.53;;;2.10;;
71655;SDS011;59497;48.798;8.816;2023-07-02T02:41:18;3.30;;;2.60;;
71655;SDS011;59497;48.798;8.816;2023-07-02T02:43:44;4.03;;;2.40;;
71655;SDS011;59497;48.798;8.816;2023-07-02T02:46:10;4.50;;;2.70;;
71655;SDS011;59497;48.798;8.816;2023-07-02T02:48:35;4.80;;;2.72;;
71655;SDS011;59497;48.798;8.816;2023-07-02T02:51:01;5.57;;;2.80;;
71655;SDS011;59497;48.798;8.816;2023-07-02T02:53:26;5.53;;;2.97;;
71655;SDS011;59497;48.798;8.816;2023-07-02T02:55:51;6.20;;;3.13;;
71655;SDS011;59497;48.798;8.816;2023-07-02T02:58:16;7.30;;;2.70;;
71655;SDS011;59497;48.798;8.816;2023-07-02T03:00:41;5.97;;;2.70;;
71655;SDS011;59497;48.798;8.816;2023-07-02T03:03:10;5.40;;;2.72;;
71655;SDS011;59497;48.798;8.816;2023-07-02T03:05:35;5.23;;;2.60;;
71655;SDS011;59497;48.798;8.816;2023-07-02T03:08:00;7.23;;;2.53;;
71655;SDS011;59497;48.798;8.816;2023-07-02T03:10:26;4.83;;;2.70;;
71655;SDS011;59497;48.798;8.816;2023-07-02T03:12:51;5.47;;;2.63;;
71655;SDS011;59497;48.798;8.816;2023-07-02T03:15:16;5.03;;;2.70;;
71655;SDS011;59497;48.798;8.816;2023-07-02T03:17:42;4.07;;;3.05;;
71655;SDS011;59497;48.798;8.816;2023-07-02T03:20:07;6.57;;;3.00;;
71655;SDS011;59497;48.798;8.816;2023-07-02T03:22:33;3.43;;;2.60;;
71655;SDS011;59497;48.798;8.816;2023-07-02T03:24:58;4.90;;;2.53;;
71655;SDS011;59497;48.798;8.816;2023-07-02T03:27:23;4.80;;;2.30;;
71655;SDS011;59497;48.798;8.816;2023-07-02T03:29:48;4.53;;;2.60;;
71655;SDS011;59497;48.798;8.816;2023-07-02T03:32:14;4.57;;;2.10;;
71655;SDS011;59497;48.798;8.816;2023-07-02T03:34:39;4.23;;;2.60;;
71655;SDS011;59497;48.798;8.816;2023-07-02T03:37:04;6.37;;;2.50;;
71655;SDS011;59497;48.798;8.816;2023-07-02T03:39:29;7.55;;;2.85;;
71655;SDS011;59497;48.798;8.816;2023-07-02T03:41:54;5.47;;;3.17;;
71655;SDS011;59497;48.798;8.816;2023-07-02T03:44:20;7.17;;;3.47;;
71655;SDS011;59497;48.798;8.816;2023-07-02T03:46:45;6.30;;;2.90;;
71655;SDS011;59497;48.798;8.816;2023-07-02T03:49:10;7.73;;;2.60;;
71655;SDS011;59497;48.798;8.816;2023-07-02T03:51:35;5.63;;;2.60;;
71655;SDS011;59497;48.798;8.816;2023-07-02T03:54:01;5.77;;;3.00;;
71655;SDS011;59497;48.798;8.816;2023-07-02T03:56:26;5.93;;;3.13;;
71655;SDS011;59497;48.798;8.816;2023-07-02T03:58:51;5.23;;;3.17;;
71655;SDS011;59497;48.798;8.816;2023-07-02T04:01:17;6.67;;;3.20;;
71655;SDS011;59497;48.798;8.816;2023-07-02T04:03:47;5.53;;;2.50;;
71655;SDS011;59497;48.798;8.816;2023-07-02T04:06:12;6.53;;;2.72;;
71655;SDS011;59497;48.798;8.816;2023-07-02T04:08:38;6.63;;;3.00;;
71655;SDS011;59497;48.798;8.816;2023-07-02T04:11:03;5.10;;;2.90;;
71655;SDS011;59497;48.798;8.816;2023-07-02T04:13:28;6.57;;;2.53;;
71655;SDS011;59497;48.798;8.816;2023-07-02T04:15:53;5.67;;;2.77;;
71655;SDS011;59497;48.798;8.816;2023-07-02T04:18:18;8.70;;;3.07;;
71655;SDS011;59497;48.798;8.816;2023-07-02T04:20:44;6.10;;;2.83;;
71655;SDS011;59497;48.798;8.816;2023-07-02T04:23:09;7.47;;;2.90;;
71655;SDS011;59497;48.798;8.816;2023-07-02T04:25:34;4.17;;;2.70;;
71655;SDS011;59497;48.798;8.816;2023-07-02T04:27:59;4.93;;;2.50;;
71655;SDS011;59497;48.798;8.816;2023-07-02T04:30:24;9.20;;;2.83;;
71655;SDS011;59497;48.798;8.816;2023-07-02T04:32:50;4.82;;;2.92;;
71655;SDS011;59497;48.798;8.816;2023-07-02T04:35:15;6.20;;;2.90;;
71655;SDS011;59497;48.798;8.816;2023-07-02T04:37:41;6.97;;;2.93;;
71655;SDS011;59497;48.798;8.816;2023-07-02T04:40:06;5.23;;;2.20;;
71655;SDS011;59497;48.798;8.816;2023-07-02T04:42:35;5.47;;;3.17;;
71655;SDS011;59497;48.798;8.816;2023-07-02T04:45:02;3.50;;;2.63;;
71655;SDS011;59497;48.798;8.816;2023-07-02T04:47:28;5.30;;;2.83;;
71655;SDS011;59497;48.798;8.816;2023-07-02T04:49:53;4.35;;;2.60;;
71655;SDS011;59497;48.798;8.816;2023-07-02T04:52:19;5.93;;;2.87;;
71655;SDS011;59497;48.798;8.816;2023-07-02T04:54:44;3.43;;;2.20;;
71655;SDS011;59497;48.798;8.816;2023-07-02T04:57:09;4.97;;;3.23;;
71655;SDS011;59497;48.798;8.816;2023-07-02T04:59:34;5.30;;;2.73;;
71655;SDS011;59497;48.798;8.816;2023-07-02T05:01:59;6.53;;;2.60;;
71655;SDS011;59497;48.798;8.816;2023-07-02T05:04:24;5.05;;;3.15;;
71655;SDS011;59497;48.798;8.816;2023-07-02T05:06:50;5.43;;;2.87;;
71655;SDS011;59497;48.798;8.816;2023-07-02T05:09:15;7.43;;;3.07;;
71655;SDS011;59497;48.798;8.816;2023-07-02T05:11:40;4.37;;;2.70;;
71655;SDS011;59497;48.798;8.816;2023-07-02T05:14:05;5.93;;;3.23;;
71655;SDS011;59497;48.798;8.816;2023-07-02T05:16:30;5.77;;;3.07;;
71655;SDS011;59497;48.798;8.816;2023-07-02T05:18:56;6.60;;;3.40;;
71655;SDS011;59497;48.798;8.816;2023-07-02T05:21:21;5.10;;;2.70;;
71655;SDS011;59497;48.798;8.816;2023-07-02T05:23:47;6.30;;;2.75;;
71655;SDS011;59497;48.798;8.816;2023-07-02T05:26:12;5.50;;;2.87;;
71655;SDS011;59497;48.798;8.816;2023-07-02T05:28:38;7.20;;;3.73;;
71655;SDS011;59497;48.798;8.816;2023-07-02T05:31:03;7.57;;;3.10;;
71655;SDS011;59497;48.798;8.816;2023-07-02T05:33:28;4.57;;;3.10;;
71655;SDS011;59497;48.798;8.816;2023-07-02T05:35:53;8.07;;;3.37;;
71655;SDS011;59497;48.798;8.816;2023-07-02T05:38:18;6.00;;;3.30;;
71655;SDS011;59497;48.798;8.816;2023-07-02T05:40:44;7.53;;;3.63;;
71655;SDS011;59497;48.798;8.816;2023-07-02T05:43:10;7.90;;;3.33;;
71655;SDS011;59497;48.798;8.816;2023-07-02T05:45:35;5.00;;;3.00;;
71655;SDS011;59497;48.798;8.816;2023-07-02T05:48:00;8.63;;;3.73;;
71655;SDS011;59497;48.798;8.816;2023-07-02T05:50:26;6.40;;;3.77;;
71655;SDS011;59497;48.798;8.816;2023-07-02T05:52:51;8.10;;;3.50;;
71655;SDS011;59497;48.798;8.816;2023-07-02T05:55:16;8.07;;;3.53;;
71655;SDS011;59497;48.798;8.816;2023-07-02T05:57:41;8.00;;;3.50;;
71655;SDS011;59497;48.798;8.816;2023-07-02T06:00:07;6.90;;;3.50;;
71655;SDS011;59497;48.798;8.816;2023-07-02T06:02:32;9.15;;;3.63;;
71655;SDS011;59497;48.798;8.816;2023-07-02T06:04:57;7.03;;;3.83;;
71655;SDS011;59497;48.798;8.816;2023-07-02T06:07:26;8.83;;;4.20;;
71655;SDS011;59497;48.798;8.816;2023-07-02T06:09:51;10.00;;;4.45;;
71655;SDS011;59497;48.798;8.816;2023-07-02T06:12:16;7.87;;;3.80;;
71655;SDS011;59497;48.798;8.816;2023-07-02T06:14:41;8.70;;;4.50;;
71655;SDS011;59497;48.798;8.816;2023-07-02T06:17:07;9.77;;;4.37;;
71655;SDS011;59497;48.798;8.816;2023-07-02T06:19:32;8.93;;;4.40;;
71655;SDS011;59497;48.798;8.816;2023-07-02T06:21:57;12.03;;;5.17;;
71655;SDS011;59497;48.798;8.816;2023-07-02T06:24:23;10.27;;;5.13;;
71655;SDS011;59497;48.798;8.816;2023-07-02T06:26:48;11.47;;;5.33;;
71655;SDS011;59497;48.798;8.816;2023-07-02T06:29:13;10.80;;;5.40;;
71655;SDS011;59497;48.798;8.816;2023-07-02T06:31:38;13.77;;;5.47;;
71655;SDS011;59497;48.798;8.816;2023-07-02T06:34:03;12.67;;;5.40;;
71655;SDS011;59497;48.798;8.816;2023-07-02T06:36:29;10.27;;;5.13;;
71655;SDS011;59497;48.798;8.816;2023-07-02T06:38:54;12.90;;;5.33;;
71655;SDS011;59497;48.798;8.816;2023-07-02T06:41:19;13.10;;;5.53;;
71655;SDS011;59497;48.798;8.816;2023-07-02T06:43:44;11.13;;;5.83;;
71655;SDS011;59497;48.798;8.816;2023-07-02T06:46:12;14.77;;;5.73;;
71655;SDS011;59497;48.798;8.816;2023-07-02T06:48:38;11.82;;;5.80;;
71655;SDS011;59497;48.798;8.816;2023-07-02T06:51:03;12.87;;;5.90;;
71655;SDS011;59497;48.798;8.816;2023-07-02T06:53:28;11.83;;;6.13;;
71655;SDS011;59497;48.798;8.816;2023-07-02T06:55:53;14.77;;;7.23;;
71655;SDS011;59497;48.798;8.816;2023-07-02T06:58:19;11.37;;;6.40;;
71655;SDS011;59497;48.798;8.816;2023-07-02T07:00:44;11.68;;;6.00;;
71655;SDS011;59497;48.798;8.816;2023-07-02T07:03:09;12.13;;;6.23;;
71655;SDS011;59497;48.798;8.816;2023-07-02T07:05:35;15.03;;;6.53;;
71655;SDS011;59497;48.798;8.816;2023-07-02T07:08:00;12.57;;;6.17;;
71655;SDS011;59497;48.798;8.816;2023-07-02T07:10:26;12.83;;;6.13;;
71655;SDS011;59497;48.798;8.816;2023-07-02T07:12:51;16.40;;;6.40;;
71655;SDS011;59497;48.798;8.816;2023-07-02T07:15:16;14.23;;;6.70;;
71655;SDS011;59497;48.798;8.816;2023-07-02T07:17:41;15.10;;;7.05;;
71655;SDS011;59497;48.798;8.816;2023-07-02T07:20:06;15.43;;;7.37;;
71655;SDS011;59497;48.798;8.816;2023-07-02T07:22:33;16.30;;;7.93;;
71655;SDS011;59497;48.798;8.816;2023-07-02T07:24:58;13.48;;;6.97;;
71655;SDS011;59497;48.798;8.816;2023-07-02T07:27:23;13.70;;;6.90;;
71655;SDS011;59497;48.798;8.816;2023-07-02T07:29:48;13.85;;;6.90;;
71655;SDS011;59497;48.798;8.816;2023-07-02T07:32:13;16.60;;;7.20;;
71655;SDS011;59497;48.798;8.816;2023-07-02T07:34:38;15.17;;;7.13;;
71655;SDS011;59497;48.798;8.816;2023-07-02T07:37:04;15.25;;;7.20;;
71655;SDS011;59497;48.798;8.816;2023-07-02T07:39:29;17.90;;;8.17;;
71655;SDS011;59497;48.798;8.816;2023-07-02T07:41:55;15.87;;;6.47;;
71655;SDS011;59497;48.798;8.816;2023-07-02T07:44:20;20.60;;;7.30;;
71655;SDS011;59497;48.798;8.816;2023-07-02T07:46:45;15.60;;;7.43;;
71655;SDS011;59497;48.798;8.816;2023-07-02T07:49:10;18.20;;;7.80;;
71655;SDS011;59497;48.798;8.816;2023-07-02T07:51:35;13.27;;;7.03;;
71655;SDS011;59497;48.798;8.816;2023-07-02T07:54:01;15.83;;;7.50;;
71655;SDS011;59497;48.798;8.816;2023-07-02T07:56:26;17.33;;;7.65;;
71655;SDS011;59497;48.798;8.816;2023-07-02T07:58:51;19.10;;;8.50;;
71655;SDS011;59497;48.798;8.816;2023-07-02T08:01:16;18.00;;;8.45;;
71655;SDS011;59497;48.798;8.816;2023-07-02T08:03:42;19.85;;;9.05;;
71655;SDS011;59497;48.798;8.816;2023-07-02T08:06:07;18.23;;;8.50;;
71655;SDS011;59497;48.798;8.816;2023-07-02T08:08:32;17.15;;;7.70;;
71655;SDS011;59497;48.798;8.816;2023-07-02T08:10:57;21.57;;;8.17;;
71655;SDS011;59497;48.798;8.816;2023-07-02T08:13:22;21.20;;;8.20;;
71655;SDS011;59497;48.798;8.816;2023-07-02T08:15:47;19.15;;;8.65;;
71655;SDS011;59497;48.798;8.816;2023-07-02T08:18:13;18.23;;;8.17;;
71655;SDS011;59497;48.798;8.816;2023-07-02T08:20:38;14.50;;;7.37;;
71655;SDS011;59497;48.798;8.816;2023-07-02T08:23:03;16.73;;;7.90;;
71655;SDS011;59497;48.798;8.816;2023-07-02T08:25:28;18.80;;;8.43;;
71655;SDS011;59497;48.798;8.816;2023-07-02T08:27:53;20.57;;;8.57;;
71655;SDS011;59497;48.798;8.816;2023-07-02T08:30:19;18.20;;;7.83;;
71655;SDS011;59497;48.798;8.816;2023-07-02T08:32:45;17.70;;;7.60;;
71655;SDS011;59497;48.798;8.816;2023-07-02T08:35:10;19.43;;;8.10;;
71655;SDS011;59497;48.798;8.816;2023-07-02T08:37:35;20.00;;;8.30;;
71655;SDS011;59497;48.798;8.816;2023-07-02T08:40:01;20.53;;;8.47;;
71655;SDS011;59497;48.798;8.816;2023-07-02T08:42:26;16.47;;;7.93;;
71655;SDS011;59497;48.798;8.816;2023-07-02T08:44:54;17.13;;;8.43;;
71655;SDS011;59497;48.798;8.816;2023-07-02T08:47:20;16.50;;;8.20;;
71655;SDS011;59497;48.798;8.816;2023-07-02T08:49:47;15.57;;;8.40;;
71655;SDS011;59497;48.798;8.816;2023-07-02T08:52:12;15.63;;;8.02;;
71655;SDS011;59497;48.798;8.816;2023-07-02T08:54:38;18.90;;;8.10;;
71655;SDS011;59497;48.798;8.816;2023-07-02T08:57:03;15.57;;;8.00;;
71655;SDS011;59497;48.798;8.816;2023-07-02T08:59:30;19.27;;;9.63;;
71655;SDS011;59497;48.798;8.816;2023-07-02T09:01:55;17.87;;;8.53;;
71655;SDS011;59497;48.798;8.816;2023-07-02T09:04:21;20.10;;;8.33;;
71655;SDS011;59497;48.798;8.816;2023-07-02T09:06:48;18.38;;;7.95;;
71655;SDS011;59497;48.798;8.816;2023-07-02T09:09:13;17.27;;;8.70;;
71655;SDS011;59497;48.798;8.816;2023-07-02T09:11:51;19.52;;;8.63;;
71655;SDS011;59497;48.798;8.816;2023-07-02T09:14:29;18.03;;;8.80;;
71655;SDS011;59497;48.798;8.816;2023-07-02T09:17:28;16.80;;;8.57;;
71655;SDS011;59497;48.798;8.816;2023-07-02T09:19:50;17.92;;;8.73;;
71655;SDS011;59497;48.798;8.816;2023-07-02T09:22:15;18.48;;;8.93;;
71655;SDS011;59497;48.798;8.816;2023-07-02T09:24:41;19.55;;;9.75;;
71655;SDS011;59497;48.798;8.816;2023-07-02T09:27:06;17.73;;;8.40;;
71655;SDS011;59497;48.798;8.816;2023-07-02T09:29:32;19.40;;;9.00;;
71655;SDS011;59497;48.798;8.816;2023-07-02T09:31:58;16.53;;;7.90;;
71655;SDS011;59497;48.798;8.816;2023-07-02T09:34:27;15.70;;;7.72;;
71655;SDS011;59497;48.798;8.816;2023-07-02T09:36:53;15.68;;;7.70;;
71655;SDS011;59497;48.798;8.816;2023-07-02T09:39:19;18.03;;;8.13;;
71655;SDS011;59497;48.798;8.816;2023-07-02T09:41:44;18.17;;;8.65;;
71655;SDS011;59497;48.798;8.816;2023-07-02T09:44:12;16.90;;;8.50;;
71655;SDS011;59497;48.798;8.816;2023-07-02T09:46:41;17.92;;;8.55;;
71655;SDS011;59497;48.798;8.816;2023-07-02T09:49:08;16.80;;;8.60;;
71655;SDS011;59497;48.798;8.816;2023-07-02T09:51:36;17.75;;;8.70;;
71655;SDS011;59497;48.798;8.816;2023-07-02T09:54:01;15.40;;;8.30;;
71655;SDS011;59497;48.798;8.816;2023-07-02T09:56:26;16.67;;;8.57;;
71655;SDS011;59497;48.798;8.816;2023-07-02T09:58:52;16.00;;;8.02;;
71655;SDS011;59497;48.798;8.816;2023-07-02T10:01:18;18.27;;;7.97;;
71655;SDS011;59497;48.798;8.816;2023-07-02T10:03:43;17.73;;;8.50;;
71655;SDS011;59497;48.798;8.816;2023-07-02T10:06:08;16.07;;;7.50;;
71655;SDS011;59497;48.798;8.816;2023-07-02T10:08:33;14.47;;;8.40;;
71655;SDS011;59497;48.798;8.816;2023-07-02T10:11:11;17.97;;;8.87;;
71655;SDS011;59497;48.798;8.816;2023-07-02T10:13:37;15.63;;;8.45;;
71655;SDS011;59497;48.798;8.816;2023-07-02T10:16:03;13.27;;;7.83;;
71655;SDS011;59497;48.798;8.816;2023-07-02T10:18:29;14.35;;;7.75;;
71655;SDS011;59497;48.798;8.816;2023-07-02T10:20:54;16.13;;;9.00;;
71655;SDS011;59497;48.798;8.816;2023-07-02T10:23:19;21.27;;;9.87;;
71655;SDS011;59497;48.798;8.816;2023-07-02T10:25:45;18.93;;;9.33;;
71655;SDS011;59497;48.798;8.816;2023-07-02T10:28:14;20.17;;;9.37;;
71655;SDS011;59497;48.798;8.816;2023-07-02T10:30:39;16.47;;;8.43;;
71655;SDS011;59497;48.798;8.816;2023-07-02T10:33:11;17.67;;;7.90;;
71655;SDS011;59497;48.798;8.816;2023-07-02T10:35:37;14.38;;;7.93;;
71655;SDS011;59497;48.798;8.816;2023-07-02T10:38:03;15.65;;;8.40;;
71655;SDS011;59497;48.798;8.816;2023-07-02T10:40:29;17.43;;;7.80;;
71655;SDS011;59497;48.798;8.816;2023-07-02T10:42:55;16.52;;;8.00;;
71655;SDS011;59497;48.798;8.816;2023-07-02T10:45:20;14.95;;;7.85;;
71655;SDS011;59497;48.798;8.816;2023-07-02T10:47:46;18.93;;;9.13;;
71655;SDS011;59497;48.798;8.816;2023-07-02T10:52:39;15.40;;;8.27;;
71655;SDS011;59497;48.798;8.816;2023-07-02T10:55:04;15.57;;;8.10;;
71655;SDS011;59497;48.798;8.816;2023-07-02T10:57:30;18.07;;;8.33;;
71655;SDS011;59497;48.798;8.816;2023-07-02T11:00:03;17.03;;;9.00;;
71655;SDS011;59497;48.798;8.816;2023-07-02T11:02:33;15.68;;;8.77;;
71655;SDS011;59497;48.798;8.816;2023-07-02T11:04:58;17.80;;;9.15;;
71655;SDS011;59497;48.798;8.816;2023-07-02T11:07:23;23.50;;;9.40;;
71655;SDS011;59497;48.798;8.816;2023-07-02T11:09:49;18.60;;;9.13;;
71655;SDS011;59497;48.798;8.816;2023-07-02T11:12:15;19.80;;;9.48;;
71655;SDS011;59497;48.798;8.816;2023-07-02T11:14:41;16.70;;;9.13;;
71655;SDS011;59497;48.798;8.816;2023-07-02T11:17:06;15.67;;;8.67;;
71655;SDS011;59497;48.798;8.816;2023-07-02T11:19:32;15.77;;;8.93;;
71655;SDS011;59497;48.798;8.816;2023-07-02T11:21:58;15.15;;;8.95;;
71655;SDS011;59497;48.798;8.816;2023-07-02T11:24:27;14.82;;;8.35;;
71655;SDS011;59497;48.798;8.816;2023-07-02T11:26:53;15.50;;;7.97;;
71655;SDS011;59497;48.798;8.816;2023-07-02T11:29:18;15.97;;;9.43;;
71655;SDS011;59497;48.798;8.816;2023-07-02T11:31:43;17.63;;;8.27;;
71655;SDS011;59497;48.798;8.816;2023-07-02T11:34:15;15.37;;;8.53;;
71655;SDS011;59497;48.798;8.816;2023-07-02T11:36:40;17.30;;;8.65;;
71655;SDS011;59497;48.798;8.816;2023-07-02T11:39:06;14.43;;;7.97;;
71655;SDS011;59497;48.798;8.816;2023-07-02T11:41:38;19.40;;;8.33;;
71655;SDS011;59497;48.798;8.816;2023-07-02T11:44:03;15.55;;;9.20;;
71655;SDS011;59497;48.798;8.816;2023-07-02T11:46:28;16.53;;;8.93;;
71655;SDS011;59497;48.798;8.816;2023-07-02T11:48:53;15.03;;;8.50;;
71655;SDS011;59497;48.798;8.816;2023-07-02T11:51:18;19.77;;;8.90;;
71655;SDS011;59497;48.798;8.816;2023-07-02T11:53:43;17.37;;;9.23;;
71655;SDS011;59497;48.798;8.816;2023-07-02T11:56:09;15.73;;;8.87;;
71655;SDS011;59497;48.798;8.816;2023-07-02T11:58:34;17.97;;;8.60;;
71655;SDS011;59497;48.798;8.816;2023-07-02T12:00:59;16.67;;;9.63;;
71655;SDS011;59497;48.798;8.816;2023-07-02T12:03:25;16.00;;;8.50;;
71655;SDS011;59497;48.798;8.816;2023-07-02T12:05:50;17.07;;;9.07;;
71655;SDS011;59497;48.798;8.816;2023-07-02T12:08:16;19.20;;;10.10;;
71655;SDS011;59497;48.798;8.816;2023-07-02T12:10:41;17.90;;;9.23;;
71655;SDS011;59497;48.798;8.816;2023-07-02T12:13:06;15.93;;;8.90;;
71655;SDS011;59497;48.798;8.816;2023-07-02T12:15:31;17.80;;;9.40;;
71655;SDS011;59497;48.798;8.816;2023-07-02T12:17:57;17.93;;;9.57;;
71655;SDS011;59497;48.798;8.816;2023-07-02T12:20:22;17.93;;;9.90;;
71655;SDS011;59497;48.798;8.816;2023-07-02T12:22:47;18.33;;;9.83;;
71655;SDS011;59497;48.798;8.816;2023-07-02T12:25:12;15.03;;;8.23;;
71655;SDS011;59497;48.798;8.816;2023-07-02T12:27:37;15.30;;;9.57;;
71655;SDS011;59497;48.798;8.816;2023-07-02T12:30:03;19.67;;;9.52;;
71655;SDS011;59497;48.798;8.816;2023-07-02T12:32:28;16.37;;;8.70;;
71655;SDS011;59497;48.798;8.816;2023-07-02T12:34:55;18.63;;;9.32;;
71655;SDS011;59497;48.798;8.816;2023-07-02T12:37:20;15.83;;;8.50;;
71655;SDS011;59497;48.798;8.816;2023-07-02T12:39:45;17.07;;;9.50;;
71655;SDS011;59497;48.798;8.816;2023-07-02T12:42:11;16.97;;;8.77;;
71655;SDS011;59497;48.798;8.816;2023-07-02T12:44:36;16.00;;;8.67;;
71655;SDS011;59497;48.798;8.816;2023-07-02T12:47:01;17.80;;;9.07;;
71655;SDS011;59497;48.798;8.816;2023-07-02T12:49:26;16.33;;;8.33;;
71655;SDS011;59497;48.798;8.816;2023-07-02T12:51:51;16.87;;;8.97;;
71655;SDS011;59497;48.798;8.816;2023-07-02T12:54:17;15.13;;;8.93;;
71655;SDS011;59497;48.798;8.816;2023-07-02T12:56:42;17.40;;;9.57;;
71655;SDS011;59497;48.798;8.816;2023-07-02T12:59:07;16.80;;;9.00;;
71655;SDS011;59497;48.798;8.816;2023-07-02T13:01:32;19.47;;;9.73;;
71655;SDS011;59497;48.798;8.816;2023-07-02T13:03:57;17.50;;;9.07;;
71655;SDS011;59497;48.798;8.816;2023-07-02T13:06:23;16.00;;;9.27;;
71655;SDS011;59497;48.798;8.816;2023-07-02T13:08:48;16.17;;;9.30;;
71655;SDS011;59497;48.798;8.816;2023-07-02T13:11:13;16.17;;;9.30;;
71655;SDS011;59497;48.798;8.816;2023-07-02T13:13:39;15.05;;;8.88;;
71655;SDS011;59497;48.798;8.816;2023-07-02T13:16:06;17.00;;;9.80;;
71655;SDS011;59497;48.798;8.816;2023-07-02T13:18:31;16.87;;;8.70;;
71655;SDS011;59497;48.798;8.816;2023-07-02T13:20:56;16.30;;;10.00;;
71655;SDS011;59497;48.798;8.816;2023-07-02T13:23:21;19.23;;;10.37;;
71655;SDS011;59497;48.798;8.816;2023-07-02T13:25:46;17.77;;;9.47;;
71655;SDS011;59497;48.798;8.816;2023-07-02T13:28:12;17.30;;;9.97;;
71655;SDS011;59497;48.798;8.816;2023-07-02T13:30:37;15.03;;;8.83;;
71655;SDS011;59497;48.798;8.816;2023-07-02T13:33:02;13.80;;;8.90;;
71655;SDS011;59497;48.798;8.816;2023-07-02T13:35:27;14.63;;;9.43;;
71655;SDS011;59497;48.798;8.816;2023-07-02T13:37:52;14.97;;;9.17;;
71655;SDS011;59497;48.798;8.816;2023-07-02T13:40:18;13.37;;;9.33;;
71655;SDS011;59497;48.798;8.816;2023-07-02T13:42:43;15.87;;;8.50;;
71655;SDS011;59497;48.798;8.816;2023-07-02T13:45:09;16.63;;;9.13;;
71655;SDS011;59497;48.798;8.816;2023-07-02T13:47:34;16.85;;;8.50;;
71655;SDS011;59497;48.798;8.816;2023-07-02T13:50:00;16.80;;;9.73;;
71655;SDS011;59497;48.798;8.816;2023-07-02T13:52:25;17.37;;;8.97;;
71655;SDS011;59497;48.798;8.816;2023-07-02T13:54:50;19.97;;;9.50;;
71655;SDS011;59497;48.798;8.816;2023-07-02T13:57:16;16.17;;;8.73;;
71655;SDS011;59497;48.798;8.816;2023-07-02T13:59:41;14.10;;;9.30;;
71655;SDS011;59497;48.798;8.816;2023-07-02T14:02:06;16.07;;;8.53;;
71655;SDS011;59497;48.798;8.816;2023-07-02T14:04:31;15.73;;;9.40;;
71655;SDS011;59497;48.798;8.816;2023-07-02T14:06:57;14.70;;;8.40;;
71655;SDS011;59497;48.798;8.816;2023-07-02T14:09:22;14.27;;;9.17;;
71655;SDS011;59497;48.798;8.816;2023-07-02T14:11:47;17.87;;;9.77;;
71655;SDS011;59497;48.798;8.816;2023-07-02T14:14:12;16.60;;;10.00;;
71655;SDS011;59497;48.798;8.816;2023-07-02T14:16:38;15.00;;;9.13;;
71655;SDS011;59497;48.798;8.816;2023-07-02T14:19:03;13.60;;;8.47;;
71655;SDS011;59497;48.798;8.816;2023-07-02T14:21:28;16.30;;;9.10;;
71655;SDS011;59497;48.798;8.816;2023-07-02T14:23:53;15.50;;;8.43;;
71655;SDS011;59497;48.798;8.816;2023-07-02T14:26:18;17.73;;;9.27;;
71655;SDS011;59497;48.798;8.816;2023-07-02T14:28:44;16.80;;;8.57;;
71655;SDS011;59497;48.798;8.816;2023-07-02T14:31:09;15.00;;;8.93;;
71655;SDS011;59497;48.798;8.816;2023-07-02T14:33:35;16.63;;;9.07;;
71655;SDS011;59497;48.798;8.816;2023-07-02T14:36:00;17.17;;;9.45;;